Terminal Aerodrome Forecast
Issued by NWS Cleveland, OH

Home | Current Version | Previous Version | Text Only | Print | Product List | Glossary On
Versions: 1 2 3 4 5 6 7 8 9 10 11 12 13 14 15 16 17 18 19 20 21 22 23 24 25 26 27 28 29 30 31 32 33 34 35 36 37
821
FTUS41 KCLE 110228 AAB
TAFCLE
TAF AMD
KCLE 110228Z 1102/1206 29012G20KT 1SM -SHSN OVC025
      TEMPO 1102/1104 1/4SM +SN OVC006
     FM110500 29014KT 4SM -SHSN OVC025
     FM110700 30012KT 6SM -SHSN BKN035
     FM111500 30012KT P6SM BKN035
     FM120000 20006KT P6SM SCT035=

USA.gov is the U.S. government's official web portal to all federal, state and local government web resources and services.